createdAt,value
2018-07-12T00:01:52.415Z,14.02
2018-07-12T00:04:19.647Z,13.96
2018-07-12T00:06:46.904Z,13.86
2018-07-12T00:09:14.303Z,13.83
2018-07-12T00:11:41.580Z,13.80
2018-07-12T00:14:08.899Z,13.77
2018-07-12T00:16:36.234Z,13.67
2018-07-12T00:19:03.518Z,13.66
2018-07-12T00:21:30.822Z,13.59
2018-07-12T00:23:58.057Z,13.56
2018-07-12T00:26:25.321Z,13.59
2018-07-12T00:28:52.667Z,13.61
2018-07-12T00:31:19.903Z,13.66
2018-07-12T00:33:47.211Z,13.56
2018-07-12T00:36:14.502Z,13.50
2018-07-12T00:38:41.779Z,13.42
2018-07-12T00:41:09.022Z,13.34
2018-07-12T00:43:36.424Z,13.27
2018-07-12T00:46:03.653Z,13.29
2018-07-12T00:48:30.910Z,13.39
2018-07-12T00:50:58.255Z,13.30
2018-07-12T00:53:25.592Z,13.23
2018-07-12T00:55:53.335Z,13.23
2018-07-12T00:58:20.598Z,13.19
2018-07-12T01:00:47.822Z,13.13
2018-07-12T01:03:15.122Z,13.12
2018-07-12T01:05:42.380Z,13.04
2018-07-12T01:08:09.648Z,13.01
2018-07-12T01:10:37.015Z,12.95
2018-07-12T01:13:04.281Z,12.92
2018-07-12T01:15:31.531Z,12.91
2018-07-12T01:17:58.816Z,12.89
2018-07-12T01:20:26.279Z,12.82
2018-07-12T01:22:53.574Z,12.74
2018-07-12T01:25:21.376Z,12.74
2018-07-12T01:27:48.659Z,12.91
2018-07-12T01:30:15.886Z,12.95
2018-07-12T01:32:43.737Z,12.92
2018-07-12T01:35:11.107Z,12.87
2018-07-12T01:37:38.383Z,12.80
2018-07-12T01:40:05.692Z,12.76
2018-07-12T01:42:32.928Z,12.73
2018-07-12T01:45:00.226Z,12.74
2018-07-12T01:47:27.463Z,12.67
2018-07-12T01:49:54.773Z,12.65
2018-07-12T01:52:22.275Z,12.58
2018-07-12T01:54:49.565Z,12.52
2018-07-12T02:02:56.074Z,12.39
2018-07-12T02:05:23.407Z,12.34
2018-07-12T02:07:50.668Z,12.23
2018-07-12T02:10:17.992Z,12.20
2018-07-12T02:12:45.234Z,12.22
2018-07-12T02:15:12.552Z,12.17
2018-07-12T02:17:39.825Z,12.19
2018-07-12T02:20:07.116Z,12.18
2018-07-12T02:22:34.363Z,12.22
2018-07-12T02:25:01.627Z,12.17
2018-07-12T02:27:29.219Z,12.19
2018-07-12T02:29:56.651Z,12.18
2018-07-12T02:32:23.933Z,12.18
2018-07-12T02:34:51.497Z,12.19
2018-07-12T02:37:18.823Z,12.20
2018-07-12T02:39:46.135Z,12.15
2018-07-12T02:42:13.408Z,12.10
2018-07-12T02:44:40.658Z,12.04
2018-07-12T02:47:07.891Z,12.02
2018-07-12T02:49:35.147Z,11.93
2018-07-12T02:52:02.382Z,11.83
2018-07-12T02:54:29.635Z,11.74
2018-07-12T02:56:57.047Z,11.65
2018-07-12T02:59:24.491Z,11.65
2018-07-12T03:01:51.803Z,11.67
2018-07-12T03:04:19.082Z,11.67
2018-07-12T03:06:46.481Z,11.67
2018-07-12T03:09:13.879Z,11.65
2018-07-12T03:11:41.161Z,11.64
2018-07-12T03:14:08.456Z,11.63
2018-07-12T03:16:35.727Z,11.90
2018-07-12T03:19:03.099Z,11.74
2018-07-12T03:21:30.355Z,11.73
2018-07-12T03:23:57.643Z,11.70
2018-07-12T03:26:24.895Z,11.70
2018-07-12T03:28:52.239Z,11.70
2018-07-12T03:31:22.818Z,11.61
2018-07-12T03:33:50.249Z,11.58
2018-07-12T03:36:17.506Z,11.62
2018-07-12T03:38:44.758Z,11.60
2018-07-12T03:41:12.006Z,11.55
2018-07-12T03:43:39.226Z,11.55
2018-07-12T03:46:06.501Z,11.57
2018-07-12T03:48:34.690Z,11.54
2018-07-12T03:51:01.976Z,11.51
2018-07-12T03:53:29.228Z,11.50
2018-07-12T03:55:56.482Z,11.47
2018-07-12T03:58:23.715Z,11.44
2018-07-12T04:00:50.979Z,11.39
2018-07-12T04:03:18.207Z,11.41
2018-07-12T04:05:45.545Z,11.44
2018-07-12T04:08:12.804Z,11.45
2018-07-12T04:10:40.044Z,11.49
2018-07-12T04:13:07.331Z,11.47
2018-07-12T04:15:34.647Z,11.50
2018-07-12T04:18:01.901Z,11.55
2018-07-12T04:20:29.122Z,11.55
2018-07-12T04:22:56.394Z,11.55
2018-07-12T04:25:23.619Z,11.57
2018-07-12T04:27:50.880Z,11.63
2018-07-12T04:30:18.195Z,11.74
2018-07-12T04:32:45.476Z,11.80
2018-07-12T04:35:12.825Z,11.94
2018-07-12T04:37:40.176Z,12.03
2018-07-12T04:40:07.431Z,12.05
2018-07-12T04:42:34.715Z,12.14
2018-07-12T04:45:01.945Z,12.20
2018-07-12T04:47:29.196Z,12.26
2018-07-12T04:49:56.426Z,12.36
2018-07-12T04:52:23.682Z,12.52
2018-07-12T04:54:50.935Z,12.61
2018-07-12T04:57:18.216Z,12.73
2018-07-12T04:59:45.747Z,12.84
2018-07-12T05:02:13.066Z,12.85
2018-07-12T05:04:40.523Z,12.86
2018-07-12T05:07:07.890Z,12.90
2018-07-12T05:09:35.122Z,12.95
2018-07-12T05:12:02.358Z,13.01
2018-07-12T05:14:29.602Z,13.07
2018-07-12T05:16:56.865Z,13.17
2018-07-12T05:19:24.150Z,13.22
2018-07-12T05:21:51.580Z,13.28
2018-07-12T05:24:18.856Z,13.33
2018-07-12T05:26:46.107Z,13.40
2018-07-12T05:29:13.376Z,13.52
2018-07-12T05:31:40.611Z,13.65
2018-07-12T05:34:07.870Z,13.72
2018-07-12T05:37:07.369Z,13.81
2018-07-12T05:39:35.970Z,13.93
2018-07-12T05:42:04.661Z,14.02
2018-07-12T05:44:33.234Z,14.13
2018-07-12T05:47:01.738Z,14.22
2018-07-12T05:49:30.271Z,14.30
2018-07-12T05:51:58.723Z,14.37
2018-07-12T05:54:27.653Z,14.46
2018-07-12T05:56:56.208Z,14.54
2018-07-12T05:59:24.757Z,14.55
2018-07-12T06:02:04.678Z,14.58
2018-07-12T06:04:33.228Z,14.74
2018-07-12T06:07:01.728Z,14.84
2018-07-12T06:09:30.185Z,14.94
2018-07-12T06:11:58.704Z,15.04
2018-07-12T06:14:27.342Z,15.17
2018-07-12T06:16:55.819Z,15.26
2018-07-12T06:19:26.363Z,15.42
2018-07-12T06:21:55.446Z,15.60
2018-07-12T06:24:24.098Z,15.77
2018-07-12T06:26:52.656Z,15.96
2018-07-12T06:29:21.207Z,16.06
2018-07-12T06:31:49.823Z,16.16
2018-07-12T06:34:18.599Z,16.29
2018-07-12T06:36:47.088Z,16.43
2018-07-12T06:39:15.699Z,16.47
2018-07-12T06:41:44.466Z,16.39
2018-07-12T06:44:13.379Z,16.49
2018-07-12T06:46:41.890Z,16.64
2018-07-12T06:49:10.393Z,16.72
2018-07-12T06:51:38.907Z,16.84
2018-07-12T06:54:07.619Z,16.92
2018-07-12T06:56:36.230Z,16.92
2018-07-12T06:59:04.731Z,17.00
2018-07-12T07:01:33.286Z,17.14
2018-07-12T07:04:01.867Z,17.20
2018-07-12T07:06:30.411Z,17.27
2018-07-12T07:08:58.982Z,17.36
2018-07-12T07:11:27.458Z,17.54
2018-07-12T07:13:55.922Z,17.74
2018-07-12T07:16:24.467Z,17.82
2018-07-12T07:18:52.978Z,17.93
2018-07-12T07:21:21.535Z,18.00
2018-07-12T07:23:50.071Z,18.10
2018-07-12T07:26:18.640Z,18.15
2018-07-12T07:28:47.285Z,18.23
2018-07-12T07:31:15.911Z,18.35
2018-07-12T07:33:44.356Z,18.49
2018-07-12T07:36:12.867Z,18.47
2018-07-12T07:38:41.695Z,18.61
2018-07-12T07:41:10.481Z,18.75
2018-07-12T07:43:38.971Z,18.81
2018-07-12T07:46:07.438Z,18.87
2018-07-12T07:48:36.241Z,19.01
2018-07-12T07:51:04.911Z,19.04
2018-07-12T07:53:33.350Z,19.11
2018-07-12T07:56:02.012Z,19.19
2018-07-12T07:58:30.464Z,19.26
2018-07-12T08:00:59.039Z,19.37
2018-07-12T08:03:27.643Z,19.46
2018-07-12T08:05:56.207Z,19.52
2018-07-12T08:08:24.639Z,19.59
2018-07-12T08:10:53.287Z,19.63
2018-07-12T08:13:21.767Z,19.79
2018-07-12T08:15:50.538Z,19.89
2018-07-12T08:18:19.175Z,20.08
2018-07-12T08:20:47.942Z,20.08
2018-07-12T08:23:16.499Z,20.26
2018-07-12T08:25:44.979Z,20.35
2018-07-12T08:28:26.498Z,20.44
2018-07-12T08:30:55.395Z,20.58
2018-07-12T08:33:24.351Z,20.65
2018-07-12T08:35:52.810Z,20.91
2018-07-12T08:38:21.585Z,21.12
2018-07-12T08:40:50.103Z,21.12
2018-07-12T08:43:18.583Z,21.26
2018-07-12T08:45:47.108Z,21.36
2018-07-12T08:48:15.550Z,21.46
2018-07-12T08:50:44.002Z,21.68
2018-07-12T08:53:12.679Z,21.83
2018-07-12T08:55:41.175Z,21.84
2018-07-12T08:58:09.688Z,21.99
2018-07-12T09:00:38.283Z,22.11
2018-07-12T09:03:06.766Z,22.27
2018-07-12T09:05:35.208Z,22.44
2018-07-12T09:08:03.766Z,22.55
2018-07-12T09:10:32.248Z,22.64
2018-07-12T09:13:01.717Z,22.66
2018-07-12T09:15:30.278Z,22.85
2018-07-12T09:17:58.760Z,22.90
2018-07-12T09:20:27.352Z,23.08
2018-07-12T09:22:55.782Z,23.27
2018-07-12T09:25:24.357Z,23.45
2018-07-12T09:27:52.767Z,23.59
2018-07-12T09:30:21.218Z,23.66
2018-07-12T09:32:49.734Z,23.85
2018-07-12T09:35:18.190Z,23.98
2018-07-12T09:37:46.678Z,24.24
2018-07-12T09:40:15.145Z,24.26
2018-07-12T09:42:43.647Z,24.00
2018-07-12T09:45:12.299Z,24.43
2018-07-12T09:47:40.859Z,24.82
2018-07-12T09:50:09.564Z,25.23
2018-07-12T09:52:38.108Z,25.72
2018-07-12T09:55:06.711Z,26.30
2018-07-12T09:57:46.609Z,26.48
2018-07-12T10:00:15.204Z,27.02
2018-07-12T10:02:48.920Z,27.45
2018-07-12T10:05:22.652Z,27.86
2018-07-12T10:07:55.235Z,28.54
2018-07-12T10:10:30.046Z,28.99
2018-07-12T10:13:03.864Z,28.99
2018-07-12T10:15:37.644Z,29.32
2018-07-12T10:18:11.553Z,29.49
2018-07-12T10:20:40.075Z,30.32
2018-07-12T10:23:08.519Z,30.07
2018-07-12T10:25:37.101Z,30.78
2018-07-12T10:28:05.823Z,30.86
2018-07-12T10:30:34.223Z,31.00
2018-07-12T10:33:02.822Z,31.19
2018-07-12T10:35:31.318Z,31.06
2018-07-12T10:37:59.819Z,31.03
2018-07-12T10:40:28.346Z,31.72
2018-07-12T10:42:56.843Z,31.47
2018-07-12T10:45:25.354Z,31.79
2018-07-12T10:47:53.845Z,31.91
2018-07-12T10:50:22.405Z,32.20
2018-07-12T10:52:50.903Z,31.86
2018-07-12T10:55:19.492Z,32.80
2018-07-12T10:57:48.051Z,32.34
2018-07-12T11:00:16.524Z,32.79
2018-07-12T11:02:45.255Z,33.03
2018-07-12T11:05:13.842Z,32.67
2018-07-12T11:07:42.350Z,33.50
2018-07-12T11:10:10.863Z,33.31
2018-07-12T11:12:39.499Z,32.84
2018-07-12T11:15:08.039Z,32.68
2018-07-12T11:17:36.498Z,33.00
2018-07-12T11:20:05.046Z,32.61
2018-07-12T11:22:33.691Z,33.20
2018-07-12T11:25:02.263Z,33.62
2018-07-12T11:27:31.743Z,33.82
2018-07-12T11:30:01.270Z,33.95
2018-07-12T11:32:29.767Z,33.85
2018-07-12T11:34:58.260Z,34.27
2018-07-12T11:37:27.789Z,35.19
2018-07-12T11:39:56.363Z,35.17
2018-07-12T11:42:25.150Z,35.91
2018-07-12T11:44:53.780Z,35.92
2018-07-12T11:47:22.317Z,36.59
2018-07-12T11:49:50.867Z,37.89
2018-07-12T11:52:19.334Z,37.05
2018-07-12T11:54:47.941Z,36.38
2018-07-12T11:57:16.422Z,37.14
2018-07-12T11:59:44.953Z,35.32
2018-07-12T12:02:13.484Z,32.19
2018-07-12T12:04:41.983Z,33.95
2018-07-12T12:07:10.695Z,35.84
2018-07-12T12:09:39.262Z,36.81
2018-07-12T12:12:07.768Z,37.82
2018-07-12T12:14:36.290Z,37.70
2018-07-12T12:17:04.903Z,38.16
2018-07-12T12:19:33.530Z,38.41
2018-07-12T12:22:02.095Z,39.01
2018-07-12T12:24:30.522Z,39.30
2018-07-12T12:26:59.050Z,38.53
2018-07-12T12:29:27.537Z,37.16
2018-07-12T12:31:56.049Z,34.25
2018-07-12T12:34:24.634Z,31.96
2018-07-12T12:36:53.295Z,32.24
2018-07-12T12:39:21.821Z,36.30
2018-07-12T12:41:50.342Z,38.88
2018-07-12T12:44:18.819Z,37.33
2018-07-12T12:46:47.273Z,35.88
2018-07-12T12:49:15.832Z,35.46
2018-07-12T12:51:46.123Z,34.00
2018-07-12T12:54:14.600Z,34.48
2018-07-12T12:56:43.186Z,33.00
2018-07-12T12:59:11.694Z,36.03
2018-07-12T13:01:40.241Z,39.21
2018-07-12T13:04:08.691Z,39.41
2018-07-12T13:06:37.245Z,39.73
2018-07-12T13:09:07.064Z,35.98
2018-07-12T13:11:35.621Z,32.86
2018-07-12T13:14:04.091Z,31.02
2018-07-12T13:16:32.563Z,32.37
2018-07-12T13:19:01.007Z,36.39
2018-07-12T13:21:29.519Z,39.11
2018-07-12T13:23:57.982Z,40.43
2018-07-12T13:26:26.592Z,40.62
2018-07-12T13:28:55.079Z,41.42
2018-07-12T13:31:23.598Z,41.63
2018-07-12T13:33:52.102Z,40.41
2018-07-12T13:36:20.671Z,35.88
2018-07-12T13:38:49.227Z,32.78
2018-07-12T13:41:17.674Z,31.62
2018-07-12T13:43:46.161Z,36.19
2018-07-12T13:46:14.719Z,38.80
2018-07-12T13:48:43.233Z,39.73
2018-07-12T13:51:11.675Z,40.57
2018-07-12T13:53:40.199Z,42.53
2018-07-12T13:56:08.747Z,41.71
2018-07-12T13:58:37.355Z,43.70
2018-07-12T14:01:06.223Z,43.10
2018-07-12T14:03:34.794Z,43.62
2018-07-12T14:06:03.294Z,43.49
2018-07-12T14:08:31.780Z,44.26
2018-07-12T14:11:00.317Z,44.02
2018-07-12T14:13:28.862Z,43.37
2018-07-12T14:15:57.370Z,44.38
2018-07-12T14:18:25.810Z,44.12
2018-07-12T14:20:54.460Z,44.15
2018-07-12T14:23:23.222Z,43.74
2018-07-12T14:25:51.747Z,43.03
2018-07-12T14:28:20.271Z,43.55
2018-07-12T14:30:48.853Z,44.60
2018-07-12T14:33:17.481Z,45.81
2018-07-12T14:35:46.033Z,43.65
2018-07-12T14:38:14.515Z,43.07
2018-07-12T14:40:43.033Z,44.31
2018-07-12T14:43:11.657Z,41.83
2018-07-12T14:45:40.232Z,38.36
2018-07-12T14:48:08.720Z,41.01
2018-07-12T14:50:37.357Z,41.81
2018-07-12T14:53:05.833Z,39.17
2018-07-12T14:55:34.355Z,36.60
2018-07-12T14:58:02.948Z,40.77
2018-07-12T15:00:31.651Z,42.98
2018-07-12T15:03:00.175Z,43.61
2018-07-12T15:05:28.692Z,42.58
2018-07-12T15:07:57.273Z,42.36
2018-07-12T15:10:25.811Z,42.20
2018-07-12T15:12:54.365Z,41.13
2018-07-12T15:15:22.874Z,41.17
2018-07-12T15:17:51.362Z,40.30
2018-07-12T15:20:20.015Z,39.13
2018-07-12T15:22:48.479Z,40.52
2018-07-12T15:25:16.998Z,40.88
2018-07-12T15:27:45.638Z,39.65
2018-07-12T15:30:14.216Z,40.45
2018-07-12T15:32:42.639Z,41.63
2018-07-12T15:35:11.572Z,41.61
2018-07-12T15:37:40.047Z,40.57
2018-07-12T15:40:08.615Z,38.69
2018-07-12T15:42:37.158Z,37.33
2018-07-12T15:45:06.094Z,37.83
2018-07-12T15:47:34.534Z,39.45
2018-07-12T15:50:03.071Z,39.56
2018-07-12T15:52:31.624Z,40.38
2018-07-12T15:55:00.155Z,40.09
2018-07-12T15:57:28.804Z,39.24
2018-07-12T15:59:57.310Z,40.05
2018-07-12T16:02:25.827Z,38.82
2018-07-12T16:04:54.407Z,38.61
2018-07-12T16:07:23.016Z,38.43
2018-07-12T16:09:51.539Z,39.11
2018-07-12T16:12:20.003Z,39.84
2018-07-12T16:14:48.499Z,41.13
2018-07-12T16:17:17.210Z,38.82
2018-07-12T16:19:45.982Z,39.68
2018-07-12T16:22:14.566Z,37.84
2018-07-12T16:24:43.147Z,39.03
2018-07-12T16:27:11.628Z,38.46
2018-07-12T16:29:40.311Z,38.06
2018-07-12T16:32:08.787Z,39.03
2018-07-12T16:34:37.413Z,39.37
2018-07-12T16:37:06.324Z,39.12
2018-07-12T16:39:34.916Z,38.98
2018-07-12T16:42:03.578Z,38.55
2018-07-12T16:44:32.002Z,38.92
2018-07-12T16:47:00.664Z,38.86
2018-07-12T16:49:29.243Z,39.71
2018-07-12T16:51:57.900Z,38.60
2018-07-12T16:54:26.332Z,39.25
2018-07-12T16:56:54.990Z,38.54
2018-07-12T16:59:23.510Z,39.44
2018-07-12T17:01:52.019Z,37.80
2018-07-12T17:04:20.917Z,38.27
2018-07-12T17:06:49.388Z,37.96
2018-07-12T17:09:17.925Z,37.93
2018-07-12T17:11:46.445Z,38.49
2018-07-12T17:14:15.191Z,37.66
2018-07-12T17:16:43.696Z,37.33
2018-07-12T17:19:12.230Z,36.92
2018-07-12T17:21:41.004Z,37.15
2018-07-12T17:24:09.669Z,36.95
2018-07-12T17:26:38.339Z,37.80
2018-07-12T17:29:06.802Z,37.60
2018-07-12T17:31:35.353Z,38.07
2018-07-12T17:34:03.966Z,37.01
2018-07-12T17:36:32.492Z,36.52
2018-07-12T17:39:00.950Z,37.37
2018-07-12T17:41:29.563Z,37.03
2018-07-12T17:43:58.138Z,36.89
2018-07-12T17:46:26.732Z,35.94
2018-07-12T17:48:55.270Z,34.96
2018-07-12T17:51:24.083Z,34.44
2018-07-12T17:53:52.580Z,34.07
2018-07-12T17:56:21.233Z,34.43
2018-07-12T17:58:49.818Z,33.96
2018-07-12T18:01:18.431Z,33.15
2018-07-12T18:03:46.975Z,30.98
2018-07-12T18:06:15.496Z,29.19
2018-07-12T18:08:43.979Z,28.08
2018-07-12T18:11:12.483Z,27.28
2018-07-12T18:13:40.950Z,26.87
2018-07-12T18:16:09.399Z,26.53
2018-07-12T18:18:37.978Z,26.25
2018-07-12T18:21:06.768Z,25.93
2018-07-12T18:23:35.258Z,25.74
2018-07-12T18:26:03.766Z,25.54
2018-07-12T18:28:32.666Z,25.38
2018-07-12T18:31:01.117Z,25.28
2018-07-12T18:33:29.619Z,25.22
2018-07-12T18:35:58.059Z,25.13
2018-07-12T18:38:26.711Z,25.04
2018-07-12T18:40:55.279Z,24.91
2018-07-12T18:43:23.781Z,24.85
2018-07-12T18:45:52.247Z,24.61
2018-07-12T18:48:20.715Z,24.54
2018-07-12T18:50:49.201Z,24.44
2018-07-12T18:53:17.727Z,24.30
2018-07-12T18:55:46.287Z,24.24
2018-07-12T18:58:14.894Z,24.15
2018-07-12T19:00:43.600Z,24.02
2018-07-12T19:03:12.151Z,23.85
2018-07-12T19:05:40.710Z,23.76
2018-07-12T19:08:09.260Z,23.61
2018-07-12T19:10:37.893Z,23.48
2018-07-12T19:13:06.433Z,23.31
2018-07-12T19:15:34.925Z,23.17
2018-07-12T19:18:03.510Z,23.08
2018-07-12T19:20:32.004Z,23.03
2018-07-12T19:23:00.641Z,22.89
2018-07-12T19:25:29.231Z,22.83
2018-07-12T19:27:57.923Z,22.70
2018-07-12T19:30:26.407Z,22.60
2018-07-12T19:32:54.906Z,22.45
2018-07-12T19:35:23.431Z,22.44
2018-07-12T19:37:51.865Z,22.31
2018-07-12T19:40:20.405Z,22.22
2018-07-12T19:42:49.198Z,22.13
2018-07-12T19:45:17.769Z,22.01
2018-07-12T19:47:46.195Z,21.89
2018-07-12T19:50:14.833Z,21.81
2018-07-12T19:52:43.518Z,21.72
2018-07-12T19:55:12.004Z,21.69
2018-07-12T19:57:40.797Z,21.58
2018-07-12T20:00:09.257Z,21.53
2018-07-12T20:02:37.757Z,21.43
2018-07-12T20:05:06.252Z,21.39
2018-07-12T20:07:34.803Z,21.33
2018-07-12T20:10:03.445Z,21.23
2018-07-12T20:12:31.994Z,21.12
2018-07-12T20:15:00.577Z,21.00
2018-07-12T20:17:29.041Z,20.91
2018-07-12T20:19:57.510Z,20.85
2018-07-12T20:22:27.107Z,20.86
2018-07-12T20:24:55.609Z,20.82
2018-07-12T20:27:24.208Z,20.75
2018-07-12T20:29:52.811Z,20.74
2018-07-12T20:32:21.683Z,20.74
2018-07-12T20:34:50.272Z,20.71
2018-07-12T20:37:18.951Z,20.65
2018-07-12T20:39:48.114Z,20.53
2018-07-12T20:42:16.578Z,20.50
2018-07-12T20:44:45.140Z,20.44
2018-07-12T20:47:13.632Z,20.43
2018-07-12T20:49:42.162Z,20.42
2018-07-12T20:52:10.635Z,20.36
2018-07-12T20:54:39.461Z,20.32
2018-07-12T20:57:07.914Z,20.28
2018-07-12T20:59:36.405Z,20.15
2018-07-12T21:02:04.874Z,20.02
2018-07-12T21:04:33.336Z,19.95
2018-07-12T21:07:01.879Z,19.87
2018-07-12T21:09:30.903Z,19.79
2018-07-12T21:11:59.579Z,19.78
2018-07-12T21:14:28.055Z,19.72
2018-07-12T21:17:00.791Z,19.65
2018-07-12T21:19:29.282Z,19.56
2018-07-12T21:21:57.846Z,19.47
2018-07-12T21:24:26.303Z,19.38
2018-07-12T21:26:54.795Z,19.30
2018-07-12T21:29:23.385Z,19.28
2018-07-12T21:31:52.070Z,19.21
2018-07-12T21:34:20.540Z,19.22
2018-07-12T21:36:49.035Z,19.15
2018-07-12T21:39:17.595Z,19.08
2018-07-12T21:41:46.138Z,19.02
2018-07-12T21:44:14.639Z,19.00
2018-07-12T21:46:43.430Z,18.88
2018-07-12T21:49:12.095Z,18.84
2018-07-12T21:51:40.895Z,18.76
2018-07-12T21:54:09.513Z,18.70
2018-07-12T21:56:38.138Z,18.65
2018-07-12T21:59:06.869Z,18.69
2018-07-12T22:01:35.394Z,18.75
2018-07-12T22:04:03.846Z,18.87
2018-07-12T22:07:13.670Z,18.95
2018-07-12T22:09:42.316Z,18.95
2018-07-12T22:12:10.811Z,18.86
2018-07-12T22:14:39.445Z,18.80
2018-07-12T22:17:07.971Z,18.65
2018-07-12T22:19:36.415Z,18.56
2018-07-12T22:22:04.912Z,18.52
2018-07-12T22:24:33.402Z,18.41
2018-07-12T22:27:02.238Z,18.28
2018-07-12T22:29:30.666Z,18.17
2018-07-12T22:31:59.278Z,18.12
2018-07-12T22:34:27.690Z,18.09
2018-07-12T22:36:56.267Z,18.06
2018-07-12T22:39:24.991Z,17.97
2018-07-12T22:41:53.610Z,17.91
2018-07-12T22:44:22.264Z,17.81
2018-07-12T22:46:50.754Z,17.74
2018-07-12T22:49:19.186Z,17.66
2018-07-12T22:51:47.678Z,17.59
2018-07-12T22:54:16.191Z,17.51
2018-07-12T22:56:44.859Z,17.40
2018-07-12T22:59:13.435Z,17.30
2018-07-12T23:01:41.975Z,17.27
2018-07-12T23:04:10.543Z,17.22
2018-07-12T23:06:39.149Z,17.34
2018-07-12T23:09:07.781Z,17.27
2018-07-12T23:11:36.269Z,17.19
2018-07-12T23:14:04.944Z,17.11
2018-07-12T23:16:33.443Z,17.05
2018-07-12T23:19:01.915Z,17.06
2018-07-12T23:21:30.487Z,17.08
2018-07-12T23:23:59.188Z,17.06
2018-07-12T23:26:27.650Z,17.07
2018-07-12T23:28:57.203Z,17.11
2018-07-12T23:31:25.775Z,17.07
2018-07-12T23:33:54.290Z,17.01
2018-07-12T23:36:22.761Z,16.98
2018-07-12T23:38:51.194Z,16.97
2018-07-12T23:41:19.662Z,16.95
2018-07-12T23:43:48.187Z,16.90
2018-07-12T23:46:16.662Z,16.87
2018-07-12T23:48:45.219Z,16.82
2018-07-12T23:51:14.143Z,16.80
2018-07-12T23:53:42.750Z,16.74
2018-07-12T23:56:11.268Z,16.70
2018-07-12T23:58:40.036Z,16.61
